Time;durP1;ratioP1;P1;durP2;ratioP2;P2;SDS_P1;SDS_P2;PMS_P1;PMS_P2;Temp;Humidity;BMP_temperature;BMP_pressure;BME280_temperature;BME280_humidity;BME280_pressure;Samples;Min_cycle;Max_cycle;Signal;HPM_P1;HPM_P2
2021/06/28 00:00:24;;;;;;;11.77;7.43;;;;;;;;;;1497021;39;20023;-58
2021/06/28 00:01:25;;;;;;;12.35;7.00;;;;;;;;;;1496828;39;20027;-58
2021/06/28 00:02:29;;;;;;;11.52;6.75;;;;;;;;;;1496842;39;20040;-57
2021/06/28 00:03:30;;;;;;;10.35;6.72;;;;;;;;;;1496851;39;20061;-57
2021/06/28 00:04:32;;;;;;;14.73;6.65;;;;;;;;;;1496998;39;20040;-58
2021/06/28 00:05:33;;;;;;;13.18;6.53;;;;;;;;;;1496855;39;20023;-58
2021/06/28 00:06:35;;;;;;;14.40;6.82;;;;;;;;;;1496966;39;20027;-57
2021/06/28 00:07:36;;;;;;;11.63;6.68;;;;;;;;;;1496836;39;20023;-58
2021/06/28 00:08:38;;;;;;;13.75;6.75;;;;;;;;;;1497079;39;20032;-58
2021/06/28 00:09:39;;;;;;;13.77;6.82;;;;;;;;;;1497051;39;20030;-58
2021/06/28 00:10:41;;;;;;;13.43;6.78;;;;;;;;;;1497107;39;20035;-58
2021/06/28 00:11:41;;;;;;;17.20;6.57;;;;;;;;;;1496764;39;20027;-57
2021/06/28 00:12:44;;;;;;;8.23;6.60;;;;;;;;;;1497380;39;20020;-57
2021/06/28 00:13:45;;;;;;;10.02;6.70;;;;;;;;;;1497447;39;20050;-58
2021/06/28 00:14:48;;;;;;;10.02;6.80;;;;;;;;;;1497647;39;20038;-58
2021/06/28 00:15:49;;;;;;;9.05;6.97;;;;;;;;;;1497448;39;20024;-58
2021/06/28 00:16:51;;;;;;;10.63;7.43;;;;;;;;;;1497630;39;20032;-57
2021/06/28 00:17:52;;;;;;;12.55;7.63;;;;;;;;;;1497469;39;20028;-57
2021/06/28 00:18:55;;;;;;;11.95;7.63;;;;;;;;;;1497749;39;20034;-58
2021/06/28 00:19:56;;;;;;;9.40;7.32;;;;;;;;;;1497645;39;20027;-58
2021/06/28 00:20:58;;;;;;;13.13;7.85;;;;;;;;;;1497753;39;20031;-58
2021/06/28 00:21:59;;;;;;;10.65;6.90;;;;;;;;;;1497398;39;20027;-57
2021/06/28 00:23:02;;;;;;;13.35;7.20;;;;;;;;;;1497516;39;20023;-58
2021/06/28 00:24:03;;;;;;;13.00;7.38;;;;;;;;;;1497628;39;20036;-58
2021/06/28 00:25:09;;;;;;;11.75;7.50;;;;;;;;;;1497636;39;20035;-58
2021/06/28 00:26:10;;;;;;;10.48;7.03;;;;;;;;;;1497467;39;20015;-58
2021/06/28 00:27:11;;;;;;;12.45;7.78;;;;;;;;;;1497438;39;20307;-57
2021/06/28 00:28:13;;;;;;;9.85;7.03;;;;;;;;;;1497631;39;20028;-57
2021/06/28 00:29:14;;;;;;;9.73;7.07;;;;;;;;;;1497642;39;20083;-58
2021/06/28 00:30:20;;;;;;;10.70;7.38;;;;;;;;;;1497607;39;20034;-58
2021/06/28 00:31:22;;;;;;;12.20;7.55;;;;;;;;;;1497642;39;20027;-58
2021/06/28 00:32:23;;;;;;;11.07;7.03;;;;;;;;;;1497334;39;20035;-58
2021/06/28 00:33:25;;;;;;;12.50;7.13;;;;;;;;;;1497386;39;20034;-58
2021/06/28 00:34:26;;;;;;;10.18;6.70;;;;;;;;;;1497434;39;20031;-58
2021/06/28 00:35:28;;;;;;;12.40;7.03;;;;;;;;;;1497636;39;20028;-58
2021/06/28 00:36:29;;;;;;;9.40;6.40;;;;;;;;;;1497385;39;20141;-58
2021/06/28 00:37:31;;;;;;;9.05;6.60;;;;;;;;;;1497609;39;20126;-58
2021/06/28 00:38:32;;;;;;;9.25;6.72;;;;;;;;;;1497546;39;20030;-58
2021/06/28 00:39:34;;;;;;;9.30;6.80;;;;;;;;;;1497587;39;20361;-58
2021/06/28 00:40:36;;;;;;;11.15;6.80;;;;;;;;;;1497580;39;20111;-58
2021/06/28 00:41:38;;;;;;;9.55;6.70;;;;;;;;;;1497386;39;20387;-57
2021/06/28 00:42:39;;;;;;;9.90;6.20;;;;;;;;;;1497385;39;20071;-57
2021/06/28 00:43:41;;;;;;;12.45;6.80;;;;;;;;;;1497563;39;20036;-58
2021/06/28 00:44:42;;;;;;;14.52;6.53;;;;;;;;;;1497600;39;20030;-58
2021/06/28 00:45:45;;;;;;;8.75;6.20;;;;;;;;;;1497547;39;20112;-58
2021/06/28 00:46:46;;;;;;;11.63;6.53;;;;;;;;;;1497372;39;20027;-58
2021/06/28 00:47:49;;;;;;;10.93;7.13;;;;;;;;;;1497354;39;20031;-57
2021/06/28 00:48:51;;;;;;;8.35;6.68;;;;;;;;;;1497340;39;20431;-58
2021/06/28 00:49:52;;;;;;;12.27;6.95;;;;;;;;;;1497561;39;20023;-58
2021/06/28 00:50:56;;;;;;;10.05;6.20;;;;;;;;;;1497536;39;20035;-57
2021/06/28 00:51:57;;;;;;;7.90;6.60;;;;;;;;;;1497520;39;20087;-58
2021/06/28 00:53:00;;;;;;;12.23;6.78;;;;;;;;;;1497570;39;20038;-58
2021/06/28 00:54:03;;;;;;;10.65;6.57;;;;;;;;;;1497438;39;20024;-58
2021/06/28 00:55:05;;;;;;;11.77;6.60;;;;;;;;;;1497288;39;20391;-57
2021/06/28 00:56:09;;;;;;;10.80;6.45;;;;;;;;;;1497414;39;20383;-57
2021/06/28 00:57:11;;;;;;;10.93;6.32;;;;;;;;;;1497498;39;20027;-58
2021/06/28 00:58:13;;;;;;;13.82;7.47;;;;;;;;;;1497316;39;20035;-58
2021/06/28 00:59:17;;;;;;;11.07;6.93;;;;;;;;;;1497569;39;20027;-57
2021/06/28 01:00:19;;;;;;;10.02;6.30;;;;;;;;;;1497510;39;20038;-57
2021/06/28 01:01:22;;;;;;;10.68;6.55;;;;;;;;;;1497528;39;20032;-58
2021/06/28 01:02:23;;;;;;;9.95;6.80;;;;;;;;;;1497529;39;20035;-58
2021/06/28 01:03:25;;;;;;;8.90;6.85;;;;;;;;;;1497389;39;20054;-58
2021/06/28 01:04:26;;;;;;;10.52;6.28;;;;;;;;;;1497354;39;20394;-58
2021/06/28 01:05:32;;;;;;;13.13;7.13;;;;;;;;;;1497342;39;20035;-57
2021/06/28 01:06:33;;;;;;;11.68;6.68;;;;;;;;;;1497340;39;20390;-57
2021/06/28 01:07:35;;;;;;;9.65;6.65;;;;;;;;;;1497361;39;20379;-58
2021/06/28 01:08:36;;;;;;;9.25;6.88;;;;;;;;;;1497496;39;20023;-58
2021/06/28 01:09:37;;;;;;;9.43;6.63;;;;;;;;;;1497492;39;20028;-58
2021/06/28 01:10:39;;;;;;;10.85;6.55;;;;;;;;;;1497353;39;20053;-58
2021/06/28 01:11:40;;;;;;;9.57;6.72;;;;;;;;;;1497448;39;20028;-57
2021/06/28 01:12:44;;;;;;;11.65;7.10;;;;;;;;;;1497290;39;20406;-57
2021/06/28 01:13:45;;;;;;;13.88;7.20;;;;;;;;;;1497322;39;20084;-58
2021/06/28 01:14:48;;;;;;;12.65;6.88;;;;;;;;;;1497244;39;20294;-58
2021/06/28 01:15:49;;;;;;;9.68;6.82;;;;;;;;;;1497496;39;20060;-57
2021/06/28 01:16:53;;;;;;;10.80;7.18;;;;;;;;;;1497319;39;20031;-57
2021/06/28 01:17:54;;;;;;;11.60;6.53;;;;;;;;;;1497485;39;20031;-58
2021/06/28 01:18:56;;;;;;;15.10;7.05;;;;;;;;;;1497538;39;20023;-58
2021/06/28 01:20:00;;;;;;;7.80;6.32;;;;;;;;;;1497238;39;20383;-58
2021/06/28 01:21:03;;;;;;;10.48;6.78;;;;;;;;;;1497273;39;20038;-58
2021/06/28 01:22:07;;;;;;;14.57;6.85;;;;;;;;;;1497408;39;20039;-58
2021/06/28 01:23:22;;;;;;;10.27;6.63;;;;;;;;;;1497153;39;20027;-59
2021/06/28 01:24:23;;;;;;;14.40;6.63;;;;;;;;;;1497312;39;20028;-58
2021/06/28 01:25:28;;;;;;;11.40;6.68;;;;;;;;;;1497489;39;20081;-58
2021/06/28 01:26:29;;;;;;;12.00;7.00;;;;;;;;;;1497460;39;20031;-58
2021/06/28 01:27:31;;;;;;;11.52;7.20;;;;;;;;;;1497252;39;20369;-58
2021/06/28 01:28:33;;;;;;;12.25;6.20;;;;;;;;;;1497304;39;20019;-58
2021/06/28 01:29:34;;;;;;;15.20;7.20;;;;;;;;;;1497438;39;20039;-58
2021/06/28 01:30:36;;;;;;;15.05;7.10;;;;;;;;;;1497500;39;20024;-58
2021/06/28 01:31:37;;;;;;;11.30;6.38;;;;;;;;;;1497284;39;20329;-58
2021/06/28 01:32:40;;;;;;;10.30;6.45;;;;;;;;;;1497360;39;20028;-58
2021/06/28 01:33:41;;;;;;;16.00;7.55;;;;;;;;;;1497232;39;20027;-58
2021/06/28 01:34:43;;;;;;;10.30;6.38;;;;;;;;;;1497475;39;20034;-58
2021/06/28 01:35:44;;;;;;;13.00;6.82;;;;;;;;;;1497156;39;20023;-58
2021/06/28 01:36:46;;;;;;;10.57;6.20;;;;;;;;;;1497532;39;20035;-58
2021/06/28 01:37:47;;;;;;;11.18;6.28;;;;;;;;;;1497313;39;20047;-58
2021/06/28 01:38:51;;;;;;;11.85;7.00;;;;;;;;;;1497325;39;20032;-58
2021/06/28 01:39:54;;;;;;;12.23;6.70;;;;;;;;;;1497434;39;20028;-58
2021/06/28 01:41:03;;;;;;;9.30;6.15;;;;;;;;;;1497312;39;20050;-58
2021/06/28 01:42:04;;;;;;;10.77;6.30;;;;;;;;;;1497236;39;20411;-58
2021/06/28 01:43:07;;;;;;;11.07;6.43;;;;;;;;;;1497244;39;20035;-57
2021/06/28 01:44:08;;;;;;;15.20;7.03;;;;;;;;;;1497244;39;20024;-58
2021/06/28 01:45:13;;;;;;;9.88;6.50;;;;;;;;;;1497378;39;20036;-57
2021/06/28 01:46:13;;;;;;;11.65;6.88;;;;;;;;;;1497218;39;20353;-58
2021/06/28 01:47:15;;;;;;;9.68;6.22;;;;;;;;;;1497314;39;20031;-58
2021/06/28 01:48:17;;;;;;;8.13;5.75;;;;;;;;;;1497188;39;20023;-58
2021/06/28 01:49:18;;;;;;;9.20;6.45;;;;;;;;;;1497206;39;20043;-58
2021/06/28 01:50:22;;;;;;;8.77;6.05;;;;;;;;;;1497195;39;20271;-58
2021/06/28 01:51:24;;;;;;;11.98;5.90;;;;;;;;;;1497387;39;20024;-58
2021/06/28 01:52:25;;;;;;;10.75;6.35;;;;;;;;;;1497340;39;20031;-58
2021/06/28 01:53:26;;;;;;;12.63;6.13;;;;;;;;;;1497354;39;20027;-58
2021/06/28 01:54:29;;;;;;;10.15;6.00;;;;;;;;;;1497424;39;20027;-57
2021/06/28 01:55:33;;;;;;;8.43;5.80;;;;;;;;;;1497406;39;20044;-58
2021/06/28 01:56:33;;;;;;;10.77;6.18;;;;;;;;;;1497197;39;20059;-58
2021/06/28 01:57:35;;;;;;;9.07;6.32;;;;;;;;;;1497396;39;20027;-57
2021/06/28 01:58:36;;;;;;;9.55;6.03;;;;;;;;;;1497394;39;20034;-58
2021/06/28 01:59:39;;;;;;;7.95;5.75;;;;;;;;;;1497378;39;20318;-58
2021/06/28 02:00:43;;;;;;;10.05;5.95;;;;;;;;;;1497210;39;20038;-57
2021/06/28 02:01:45;;;;;;;7.63;5.82;;;;;;;;;;1497153;39;20034;-58
2021/06/28 02:02:59;;;;;;;9.43;6.55;;;;;;;;;;1497173;39;20027;-58
2021/06/28 02:04:01;;;;;;;8.88;5.80;;;;;;;;;;1497163;39;20108;-58
2021/06/28 02:05:03;;;;;;;8.15;6.10;;;;;;;;;;1497177;39;20417;-58
2021/06/28 02:06:05;;;;;;;7.30;5.38;;;;;;;;;;1497168;39;20058;-58
2021/06/28 02:07:07;;;;;;;8.13;5.63;;;;;;;;;;1497380;39;20038;-58
2021/06/28 02:08:13;;;;;;;8.77;5.30;;;;;;;;;;1497290;39;20028;-58
2021/06/28 02:09:14;;;;;;;9.77;5.80;;;;;;;;;;1497128;39;20302;-58
2021/06/28 02:10:17;;;;;;;7.25;5.53;;;;;;;;;;1497170;39;20028;-58
2021/06/28 02:11:19;;;;;;;8.00;5.35;;;;;;;;;;1497305;39;20027;-58
2021/06/28 02:12:19;;;;;;;9.25;5.43;;;;;;;;;;1497306;39;20038;-58
2021/06/28 02:13:23;;;;;;;6.68;5.35;;;;;;;;;;1497273;39;20031;-58
2021/06/28 02:14:24;;;;;;;6.40;4.65;;;;;;;;;;1497199;39;20024;-58
2021/06/28 02:15:30;;;;;;;7.60;4.80;;;;;;;;;;1497043;39;20387;-58
2021/06/28 02:16:31;;;;;;;6.57;4.55;;;;;;;;;;1497174;39;20034;-58
2021/06/28 02:17:33;;;;;;;7.97;4.63;;;;;;;;;;1497069;39;20028;-58
2021/06/28 02:18:34;;;;;;;8.40;5.18;;;;;;;;;;1497220;39;20034;-57
2021/06/28 02:19:36;;;;;;;7.68;4.93;;;;;;;;;;1497138;39;20115;-57
2021/06/28 02:20:37;;;;;;;9.32;5.25;;;;;;;;;;1497106;39;20028;-57
2021/06/28 02:21:40;;;;;;;8.05;5.35;;;;;;;;;;1497200;39;20034;-59
2021/06/28 02:22:41;;;;;;;7.53;4.95;;;;;;;;;;1497273;39;20034;-58
2021/06/28 02:23:43;;;;;;;7.03;5.28;;;;;;;;;;1497110;39;20295;-58
2021/06/28 02:24:44;;;;;;;8.60;5.30;;;;;;;;;;1497076;39;20142;-57
2021/06/28 02:25:48;;;;;;;8.85;5.10;;;;;;;;;;1497108;39;20039;-58
2021/06/28 02:26:49;;;;;;;7.38;5.53;;;;;;;;;;1497272;39;20193;-57
2021/06/28 02:27:50;;;;;;;6.88;4.80;;;;;;;;;;1497119;39;20428;-58
2021/06/28 02:28:51;;;;;;;7.63;5.32;;;;;;;;;;1497344;39;20027;-60
2021/06/28 02:29:53;;;;;;;10.82;5.57;;;;;;;;;;1497311;39;20467;-57
2021/06/28 02:30:55;;;;;;;11.07;5.25;;;;;;;;;;1497115;39;20027;-57
2021/06/28 02:31:57;;;;;;;6.75;4.93;;;;;;;;;;1497100;39;20035;-58
2021/06/28 02:32:58;;;;;;;7.72;5.45;;;;;;;;;;1497123;39;20129;-58
2021/06/28 02:33:59;;;;;;;6.00;4.65;;;;;;;;;;1497269;39;20112;-58
2021/06/28 02:35:00;;;;;;;9.23;5.03;;;;;;;;;;1496787;39;20039;-58
2021/06/28 02:36:03;;;;;;;7.43;5.18;;;;;;;;;;1497006;39;20038;-57
2021/06/28 02:37:04;;;;;;;6.00;4.68;;;;;;;;;;1497140;39;20395;-57
2021/06/28 02:38:06;;;;;;;5.97;4.65;;;;;;;;;;1497119;39;20042;-58
2021/06/28 02:39:09;;;;;;;7.35;4.70;;;;;;;;;;1497162;39;20023;-57
2021/06/28 02:40:18;;;;;;;7.35;4.57;;;;;;;;;;1497108;39;20047;-58
2021/06/28 02:41:42;;;;;;;5.50;4.50;;;;;;;;;;1483792;40;20127;-58
2021/06/28 02:43:03;;;;;;;7.75;4.70;;;;;;;;;;1476406;40;20041;-58
2021/06/28 02:44:22;;;;;;;9.20;4.68;;;;;;;;;;1491518;39;20026;-58
2021/06/28 02:45:23;;;;;;;8.48;4.70;;;;;;;;;;1497206;39;20031;-58
2021/06/28 02:46:25;;;;;;;8.63;4.43;;;;;;;;;;1497127;39;20020;-58
2021/06/28 02:47:27;;;;;;;8.80;4.88;;;;;;;;;;1497010;39;20399;-58
2021/06/28 02:48:29;;;;;;;9.32;4.50;;;;;;;;;;1497113;39;20031;-58
2021/06/28 02:49:29;;;;;;;6.85;4.70;;;;;;;;;;1496988;39;20395;-58
2021/06/28 02:50:31;;;;;;;7.90;5.30;;;;;;;;;;1497012;39;20027;-58
2021/06/28 02:51:32;;;;;;;7.90;4.80;;;;;;;;;;1497023;39;20080;-57
2021/06/28 02:52:34;;;;;;;8.30;4.55;;;;;;;;;;1497028;39;20475;-58
2021/06/28 02:53:35;;;;;;;7.43;4.93;;;;;;;;;;1497215;39;20027;-58
2021/06/28 02:54:37;;;;;;;6.95;4.80;;;;;;;;;;1497019;39;20031;-58
2021/06/28 02:55:38;;;;;;;5.63;4.75;;;;;;;;;;1496929;39;20071;-58
2021/06/28 02:56:41;;;;;;;9.48;5.35;;;;;;;;;;1497254;39;20043;-57
2021/06/28 02:57:43;;;;;;;6.32;4.55;;;;;;;;;;1497034;39;20361;-57
2021/06/28 02:58:46;;;;;;;10.05;4.72;;;;;;;;;;1497047;39;20027;-58
2021/06/28 02:59:47;;;;;;;4.82;4.10;;;;;;;;;;1497055;39;20023;-58
2021/06/28 03:01:02;;;;;;;8.77;4.80;;;;;;;;;;1500487;39;20385;-58
2021/06/28 03:02:17;;;;;;;7.38;4.50;;;;;;;;;;1496359;39;20419;-58
2021/06/28 03:03:32;;;;;;;5.60;4.20;;;;;;;;;;1500556;39;20382;-58
2021/06/28 03:04:47;;;;;;;9.07;4.45;;;;;;;;;;1500544;39;20388;-58
2021/06/28 03:06:02;;;;;;;7.97;4.75;;;;;;;;;;1492072;39;20639;-58
2021/06/28 03:07:17;;;;;;;8.48;4.75;;;;;;;;;;1500542;31;20377;-58
2021/06/28 03:08:32;;;;;;;7.40;4.50;;;;;;;;;;1509027;39;20661;-58
2021/06/28 03:09:47;;;;;;;7.90;5.13;;;;;;;;;;1500487;39;20393;-58
2021/06/28 03:11:04;;;;;;;8.57;4.60;;;;;;;;;;1500538;39;20614;-58
2021/06/28 03:12:19;;;;;;;6.72;4.32;;;;;;;;;;1509176;39;20812;-57
2021/06/28 03:13:34;;;;;;;9.45;4.72;;;;;;;;;;1500528;39;20392;-58
2021/06/28 03:14:49;;;;;;;6.78;4.25;;;;;;;;;;1500526;39;20653;-58
2021/06/28 03:16:04;;;;;;;5.55;4.50;;;;;;;;;;1496316;39;20383;-58
2021/06/28 03:17:19;;;;;;;6.82;4.30;;;;;;;;;;1500559;39;20768;-58
2021/06/28 03:18:34;;;;;;;6.63;4.28;;;;;;;;;;1496305;39;20394;-58
2021/06/28 03:19:49;;;;;;;8.90;4.40;;;;;;;;;;1500633;39;20769;-58
2021/06/28 03:21:07;;;;;;;6.43;4.00;;;;;;;;;;1500497;39;20385;-58
2021/06/28 03:22:20;;;;;;;5.97;4.50;;;;;;;;;;1500509;39;20390;-58
2021/06/28 03:23:36;;;;;;;4.97;4.10;;;;;;;;;;1509186;39;20762;-58
2021/06/28 03:24:50;;;;;;;7.93;4.32;;;;;;;;;;1509176;39;20375;-58
2021/06/28 03:26:05;;;;;;;7.93;4.80;;;;;;;;;;1500607;39;20629;-58
2021/06/28 03:27:21;;;;;;;9.90;4.78;;;;;;;;;;1509123;39;20385;-58
2021/06/28 03:28:36;;;;;;;9.50;4.28;;;;;;;;;;1500496;39;20389;-58
2021/06/28 03:29:50;;;;;;;9.35;4.70;;;;;;;;;;1500579;39;20381;-58
2021/06/28 03:31:07;;;;;;;6.47;4.13;;;;;;;;;;1500637;39;20653;-58
2021/06/28 03:32:22;;;;;;;6.18;4.13;;;;;;;;;;1509153;39;20415;-58
2021/06/28 03:33:38;;;;;;;12.00;4.75;;;;;;;;;;1492271;31;20377;-57
2021/06/28 03:34:52;;;;;;;8.77;4.35;;;;;;;;;;1496184;39;20395;-58
2021/06/28 03:36:08;;;;;;;6.00;4.35;;;;;;;;;;1500677;39;20392;-58
2021/06/28 03:37:24;;;;;;;9.48;4.32;;;;;;;;;;1500628;39;20385;-58
2021/06/28 03:38:39;;;;;;;7.22;4.65;;;;;;;;;;1509143;39;20390;-58
2021/06/28 03:39:54;;;;;;;10.55;4.85;;;;;;;;;;1496388;39;20395;-58
2021/06/28 03:41:09;;;;;;;7.80;4.68;;;;;;;;;;1500824;39;20772;-61
2021/06/28 03:42:24;;;;;;;8.02;4.35;;;;;;;;;;1500397;39;20398;-60
2021/06/28 03:43:39;;;;;;;8.05;4.70;;;;;;;;;;1500478;39;20389;-60
2021/06/28 03:44:54;;;;;;;6.68;4.60;;;;;;;;;;1500595;39;20400;-62
2021/06/28 03:46:09;;;;;;;5.05;4.00;;;;;;;;;;1509002;39;20394;-61
2021/06/28 03:47:24;;;;;;;7.50;4.40;;;;;;;;;;1500514;39;20389;-61
2021/06/28 03:48:39;;;;;;;8.85;4.57;;;;;;;;;;1504898;39;20384;-60
2021/06/28 03:49:54;;;;;;;7.57;4.85;;;;;;;;;;1500649;39;20649;-60
2021/06/28 03:51:09;;;;;;;9.75;4.28;;;;;;;;;;1500554;39;20388;-61
2021/06/28 03:52:24;;;;;;;7.63;4.20;;;;;;;;;;1500471;39;20676;-61
2021/06/28 03:53:39;;;;;;;8.93;4.53;;;;;;;;;;1500604;31;20385;-60
2021/06/28 03:54:54;;;;;;;5.75;4.90;;;;;;;;;;1500604;39;20416;-61
2021/06/28 03:56:09;;;;;;;8.82;4.55;;;;;;;;;;1500541;39;20401;-60
2021/06/28 03:57:24;;;;;;;6.35;4.00;;;;;;;;;;1500602;39;20382;-61
2021/06/28 03:58:39;;;;;;;8.02;4.40;;;;;;;;;;1500659;39;20385;-58
2021/06/28 03:59:54;;;;;;;7.15;4.60;;;;;;;;;;1492180;31;20380;-57
2021/06/28 04:01:09;;;;;;;8.65;4.93;;;;;;;;;;1496325;39;20379;-58
2021/06/28 04:02:24;;;;;;;8.23;4.45;;;;;;;;;;1500474;39;20413;-58
2021/06/28 04:03:39;;;;;;;8.90;4.82;;;;;;;;;;1500563;39;20634;-58
2021/06/28 04:04:54;;;;;;;7.72;4.85;;;;;;;;;;1500563;39;20393;-58
2021/06/28 04:06:10;;;;;;;7.75;4.07;;;;;;;;;;1509134;39;20654;-57
2021/06/28 04:07:24;;;;;;;7.70;4.05;;;;;;;;;;1509055;39;20736;-58
2021/06/28 04:08:40;;;;;;;7.82;4.82;;;;;;;;;;1500426;39;20388;-58
2021/06/28 04:10:08;;;;;;;9.65;4.47;;;;;;;;;;1487772;39;20212;-58
2021/06/28 04:11:23;;;;;;;10.02;4.75;;;;;;;;;;1492250;31;20376;-59
2021/06/28 04:12:38;;;;;;;6.07;4.15;;;;;;;;;;1509104;39;20406;-58
2021/06/28 04:13:52;;;;;;;6.32;4.47;;;;;;;;;;1496266;39;20391;-58
2021/06/28 04:15:10;;;;;;;5.72;3.80;;;;;;;;;;1500558;39;20377;-58
2021/06/28 04:16:26;;;;;;;7.25;4.28;;;;;;;;;;1500592;39;20780;-58
2021/06/28 04:17:42;;;;;;;4.70;4.15;;;;;;;;;;1508999;39;20387;-58
2021/06/28 04:18:57;;;;;;;8.35;5.15;;;;;;;;;;1496262;39;20383;-58
2021/06/28 04:20:15;;;;;;;8.45;4.50;;;;;;;;;;1509073;39;20391;-58
2021/06/28 04:21:28;;;;;;;9.65;4.53;;;;;;;;;;1509209;39;20742;-58
2021/06/28 04:22:44;;;;;;;10.07;4.60;;;;;;;;;;1492133;39;20384;-58
2021/06/28 04:24:02;;;;;;;6.93;4.47;;;;;;;;;;1500558;39;20654;-57
2021/06/28 04:25:18;;;;;;;10.15;4.40;;;;;;;;;;1500716;39;20362;-57
2021/06/28 04:26:34;;;;;;;9.85;5.03;;;;;;;;;;1509030;39;20394;-58
2021/06/28 04:27:49;;;;;;;7.90;4.72;;;;;;;;;;1500539;39;20386;-58
2021/06/28 04:29:03;;;;;;;6.78;4.50;;;;;;;;;;1500533;39;20765;-57
2021/06/28 04:30:20;;;;;;;7.35;4.88;;;;;;;;;;1509090;31;20383;-58
2021/06/28 04:31:37;;;;;;;11.75;4.85;;;;;;;;;;1500742;39;20369;-58
2021/06/28 04:32:53;;;;;;;7.65;4.85;;;;;;;;;;1509125;39;20390;-58
2021/06/28 04:34:08;;;;;;;7.55;4.50;;;;;;;;;;1500521;39;20382;-58
2021/06/28 04:35:23;;;;;;;8.05;4.57;;;;;;;;;;1500583;39;20392;-58
2021/06/28 04:36:38;;;;;;;7.10;4.57;;;;;;;;;;1500554;39;20382;-58
2021/06/28 04:37:55;;;;;;;5.57;4.43;;;;;;;;;;1500514;39;20780;-58
2021/06/28 04:39:10;;;;;;;8.50;4.57;;;;;;;;;;1496298;39;20646;-59
2021/06/28 04:40:27;;;;;;;10.13;4.35;;;;;;;;;;1500499;39;20393;-58
2021/06/28 04:41:41;;;;;;;8.35;4.50;;;;;;;;;;1509047;39;20363;-59
2021/06/28 04:42:57;;;;;;;7.63;4.38;;;;;;;;;;1509118;39;20387;-59
2021/06/28 04:44:11;;;;;;;7.93;4.80;;;;;;;;;;1509127;39;20377;-58
2021/06/28 04:45:28;;;;;;;8.10;4.65;;;;;;;;;;1500524;39;20796;-58
2021/06/28 04:46:45;;;;;;;8.00;4.68;;;;;;;;;;1509082;39;20398;-58
2021/06/28 04:48:00;;;;;;;7.47;4.53;;;;;;;;;;1500610;39;20374;-58
2021/06/28 04:49:15;;;;;;;6.85;4.30;;;;;;;;;;1500579;39;20397;-59
2021/06/28 04:50:30;;;;;;;8.48;4.40;;;;;;;;;;1509123;39;20382;-59
2021/06/28 04:51:45;;;;;;;6.47;4.32;;;;;;;;;;1500527;39;20386;-58
2021/06/28 04:53:00;;;;;;;8.90;4.30;;;;;;;;;;1509063;39;20394;-59
2021/06/28 04:54:15;;;;;;;5.93;4.43;;;;;;;;;;1500565;39;20374;-59
2021/06/28 04:55:30;;;;;;;8.98;4.45;;;;;;;;;;1500555;39;20384;-58
2021/06/28 04:56:45;;;;;;;7.32;4.72;;;;;;;;;;1500618;39;20392;-58
2021/06/28 04:58:00;;;;;;;8.98;4.50;;;;;;;;;;1509131;39;20386;-59
2021/06/28 04:59:17;;;;;;;8.80;5.13;;;;;;;;;;1509165;39;20390;-58
2021/06/28 05:00:31;;;;;;;6.80;4.00;;;;;;;;;;1509129;39;20386;-59
2021/06/28 05:01:46;;;;;;;11.52;5.03;;;;;;;;;;1500458;39;20425;-58
2021/06/28 05:03:03;;;;;;;6.50;4.78;;;;;;;;;;1509228;39;20387;-58
2021/06/28 05:04:16;;;;;;;9.52;5.15;;;;;;;;;;1500502;39;20420;-57
2021/06/28 05:05:31;;;;;;;11.57;5.25;;;;;;;;;;1496331;39;20375;-58
2021/06/28 05:06:48;;;;;;;6.95;4.68;;;;;;;;;;1500598;39;20397;-58
2021/06/28 05:08:01;;;;;;;7.13;5.28;;;;;;;;;;1509255;39;20375;-57
2021/06/28 05:09:16;;;;;;;8.35;5.18;;;;;;;;;;1500563;39;20652;-59
2021/06/28 05:10:32;;;;;;;7.63;5.25;;;;;;;;;;1500521;39;20386;-58
2021/06/28 05:11:46;;;;;;;9.32;5.10;;;;;;;;;;1509053;39;20633;-58
2021/06/28 05:13:01;;;;;;;8.13;4.97;;;;;;;;;;1500535;39;20389;-58
2021/06/28 05:14:16;;;;;;;8.40;5.20;;;;;;;;;;1500587;39;20386;-58
2021/06/28 05:15:31;;;;;;;10.68;4.75;;;;;;;;;;1500658;39;20397;-58
2021/06/28 05:16:46;;;;;;;8.77;5.20;;;;;;;;;;1509069;39;20656;-58
2021/06/28 05:18:01;;;;;;;9.40;5.50;;;;;;;;;;1509164;39;20390;-59
2021/06/28 05:19:17;;;;;;;6.10;5.00;;;;;;;;;;1500619;39;20393;-58
2021/06/28 05:20:32;;;;;;;8.07;4.85;;;;;;;;;;1500591;39;20386;-59
2021/06/28 05:21:46;;;;;;;7.57;4.88;;;;;;;;;;1500370;39;20389;-60
2021/06/28 05:23:01;;;;;;;9.23;5.70;;;;;;;;;;1500554;39;20656;-58
2021/06/28 05:24:16;;;;;;;6.78;5.28;;;;;;;;;;1509138;39;20379;-58
2021/06/28 05:25:31;;;;;;;7.22;5.03;;;;;;;;;;1492053;39;20651;-58
2021/06/28 05:26:46;;;;;;;7.20;5.20;;;;;;;;;;1500528;39;20389;-58
2021/06/28 05:28:01;;;;;;;10.35;5.22;;;;;;;;;;1496337;39;20639;-57
2021/06/28 05:29:16;;;;;;;8.38;4.85;;;;;;;;;;1500500;39;20393;-59
2021/06/28 05:30:32;;;;;;;9.48;5.30;;;;;;;;;;1500436;39;20637;-59
2021/06/28 05:31:46;;;;;;;8.43;5.43;;;;;;;;;;1509066;39;20390;-58
2021/06/28 05:33:01;;;;;;;6.43;4.68;;;;;;;;;;1509127;39;20387;-58
2021/06/28 05:34:16;;;;;;;6.63;4.60;;;;;;;;;;1500558;39;20385;-57
2021/06/28 05:35:32;;;;;;;9.13;4.60;;;;;;;;;;1509219;39;20401;-58
2021/06/28 05:36:46;;;;;;;6.57;5.00;;;;;;;;;;1509119;39;20393;-58
2021/06/28 05:38:02;;;;;;;6.25;4.70;;;;;;;;;;1509131;39;20638;-58
2021/06/28 05:39:17;;;;;;;10.82;4.38;;;;;;;;;;1500548;39;20390;-59
2021/06/28 05:40:32;;;;;;;6.30;5.28;;;;;;;;;;1500455;39;20652;-59
2021/06/28 05:41:47;;;;;;;7.55;5.25;;;;;;;;;;1500462;39;20386;-60
2021/06/28 05:43:01;;;;;;;7.10;4.80;;;;;;;;;;1500530;39;20386;-58
2021/06/28 05:44:17;;;;;;;6.57;5.50;;;;;;;;;;1509131;39;20398;-58
2021/06/28 05:45:32;;;;;;;6.47;4.50;;;;;;;;;;1500590;39;20374;-58
2021/06/28 05:46:47;;;;;;;8.02;4.82;;;;;;;;;;1496330;39;20375;-58
2021/06/28 05:48:02;;;;;;;6.65;5.38;;;;;;;;;;1492077;39;20388;-59
2021/06/28 05:49:17;;;;;;;7.22;4.90;;;;;;;;;;1496255;39;20379;-59
2021/06/28 05:50:32;;;;;;;9.50;4.70;;;;;;;;;;1500456;39;20373;-59
2021/06/28 05:51:47;;;;;;;8.68;4.55;;;;;;;;;;1500437;39;20378;-60
2021/06/28 05:53:03;;;;;;;10.10;5.00;;;;;;;;;;1500601;39;20369;-59
2021/06/28 05:54:17;;;;;;;10.80;5.03;;;;;;;;;;1500577;39;20386;-58
2021/06/28 05:55:32;;;;;;;7.68;5.03;;;;;;;;;;1509021;39;20394;-59
2021/06/28 05:56:47;;;;;;;7.00;4.72;;;;;;;;;;1500449;39;20394;-59
2021/06/28 05:58:02;;;;;;;6.82;4.30;;;;;;;;;;1509123;39;20386;-58
2021/06/28 05:59:17;;;;;;;7.82;5.45;;;;;;;;;;1500543;39;20649;-58
2021/06/28 06:00:32;;;;;;;7.72;4.43;;;;;;;;;;1496260;39;20379;-59
2021/06/28 06:01:47;;;;;;;8.82;5.22;;;;;;;;;;1500459;39;20645;-59
2021/06/28 06:03:02;;;;;;;7.75;5.35;;;;;;;;;;1500534;39;20382;-58
2021/06/28 06:04:17;;;;;;;7.35;5.00;;;;;;;;;;1500561;39;20788;-59
2021/06/28 06:05:32;;;;;;;9.18;4.75;;;;;;;;;;1500562;39;20396;-58
2021/06/28 06:06:47;;;;;;;7.10;4.30;;;;;;;;;;1509090;39;20379;-61
2021/06/28 06:08:02;;;;;;;6.00;4.90;;;;;;;;;;1500614;31;20377;-60
2021/06/28 06:09:17;;;;;;;8.45;4.70;;;;;;;;;;1509108;39;20646;-59
2021/06/28 06:10:32;;;;;;;8.48;5.40;;;;;;;;;;1500641;31;20381;-58
2021/06/28 06:11:47;;;;;;;8.43;5.40;;;;;;;;;;1509107;31;20387;-59
2021/06/28 06:13:02;;;;;;;7.28;5.15;;;;;;;;;;1509138;39;20379;-58
2021/06/28 06:14:18;;;;;;;10.43;5.38;;;;;;;;;;1500530;39;20378;-59
2021/06/28 06:15:34;;;;;;;8.30;5.25;;;;;;;;;;1492075;39;20644;-60
2021/06/28 06:17:03;;;;;;;7.78;5.43;;;;;;;;;;1492024;39;20388;-59
2021/06/28 06:18:18;;;;;;;9.57;6.88;;;;;;;;;;1500665;39;20370;-58
2021/06/28 06:19:33;;;;;;;8.52;6.15;;;;;;;;;;1500631;39;20398;-60
2021/06/28 06:20:49;;;;;;;9.65;6.05;;;;;;;;;;1509170;39;20382;-59
2021/06/28 06:22:03;;;;;;;7.97;5.65;;;;;;;;;;1509022;39;20657;-60
2021/06/28 06:23:18;;;;;;;8.52;5.80;;;;;;;;;;1500585;39;20385;-59
2021/06/28 06:24:33;;;;;;;7.15;5.70;;;;;;;;;;1500536;39;20637;-60
2021/06/28 06:25:48;;;;;;;8.75;6.20;;;;;;;;;;1500572;39;20374;-60
2021/06/28 06:27:06;;;;;;;8.85;6.22;;;;;;;;;;1500582;39;20412;-57
2021/06/28 06:28:21;;;;;;;9.25;6.10;;;;;;;;;;1509261;31;20359;-59
2021/06/28 06:29:37;;;;;;;11.68;6.85;;;;;;;;;;1500545;39;20653;-58
2021/06/28 06:30:51;;;;;;;10.18;6.18;;;;;;;;;;1500557;39;20385;-58
2021/06/28 06:32:07;;;;;;;9.00;6.22;;;;;;;;;;1492012;39;20428;-58
2021/06/28 06:33:21;;;;;;;7.32;5.60;;;;;;;;;;1509077;39;20383;-58
2021/06/28 06:34:36;;;;;;;8.45;6.65;;;;;;;;;;1500582;31;20389;-59
2021/06/28 06:35:51;;;;;;;7.78;6.53;;;;;;;;;;1509105;39;20391;-58
2021/06/28 06:37:06;;;;;;;8.57;6.03;;;;;;;;;;1500607;39;20392;-58
2021/06/28 06:38:21;;;;;;;8.60;5.82;;;;;;;;;;1500596;39;20388;-57
2021/06/28 06:39:36;;;;;;;10.18;6.20;;;;;;;;;;1496296;39;20703;-58
2021/06/28 06:40:52;;;;;;;8.65;6.05;;;;;;;;;;1500550;39;20388;-59
2021/06/28 06:42:07;;;;;;;7.72;6.20;;;;;;;;;;1509102;39;20669;-58
2021/06/28 06:43:21;;;;;;;9.80;6.65;;;;;;;;;;1500585;39;20390;-59
2021/06/28 06:44:36;;;;;;;8.73;6.25;;;;;;;;;;1500509;39;20408;-59
2021/06/28 06:45:51;;;;;;;9.10;6.13;;;;;;;;;;1500571;39;20377;-59
2021/06/28 06:47:06;;;;;;;9.45;6.50;;;;;;;;;;1500542;39;20393;-59
2021/06/28 06:48:21;;;;;;;7.75;6.40;;;;;;;;;;1500614;31;20390;-59
2021/06/28 06:49:37;;;;;;;7.30;6.10;;;;;;;;;;1500475;39;20769;-58
2021/06/28 06:50:51;;;;;;;6.90;5.65;;;;;;;;;;1500608;39;20373;-58
2021/06/28 06:52:06;;;;;;;9.75;5.80;;;;;;;;;;1509042;39;20792;-61